createdAt,value
2023-05-19T00:00:29.267Z,12.40
2023-05-19T00:01:29.113Z,8.50
2023-05-19T00:02:29.198Z,10.00
2023-05-19T00:03:29.137Z,8.40
2023-05-19T00:04:29.065Z,10.40
2023-05-19T00:05:29.069Z,11.60
2023-05-19T00:06:29.053Z,9.80
2023-05-19T00:07:29.030Z,9.40
2023-05-19T00:08:29.018Z,9.00
2023-05-19T00:09:29.015Z,8.10
2023-05-19T00:10:29.109Z,10.60
2023-05-19T00:11:28.996Z,6.00
2023-05-19T00:12:28.970Z,10.00
2023-05-19T00:13:28.972Z,10.50
2023-05-19T00:14:28.953Z,9.90
2023-05-19T00:15:28.959Z,9.00
2023-05-19T00:16:29.322Z,7.60
2023-05-19T00:17:28.959Z,11.20
2023-05-19T00:18:28.910Z,9.00
2023-05-19T00:19:28.981Z,9.30
2023-05-19T00:20:28.914Z,8.00
2023-05-19T00:21:28.878Z,8.30
2023-05-19T00:22:28.856Z,8.80
2023-05-19T00:23:28.860Z,9.20
2023-05-19T00:24:28.845Z,8.00
2023-05-19T00:25:28.853Z,8.80
2023-05-19T00:26:28.823Z,10.40
2023-05-19T00:27:28.815Z,10.10
2023-05-19T00:28:28.796Z,10.80
2023-05-19T00:29:28.798Z,8.80
2023-05-19T00:30:28.796Z,10.60
2023-05-19T00:31:28.799Z,10.40
2023-05-19T00:32:28.805Z,8.80
2023-05-19T00:33:28.745Z,10.60
2023-05-19T00:34:28.742Z,12.10
2023-05-19T00:35:28.717Z,8.20
2023-05-19T00:36:28.716Z,8.60
2023-05-19T00:37:28.700Z,11.40
2023-05-19T00:38:28.690Z,9.00
2023-05-19T00:39:28.694Z,11.20
2023-05-19T00:40:28.665Z,7.50
2023-05-19T00:41:28.657Z,9.20
2023-05-19T00:42:28.647Z,7.80
2023-05-19T00:43:28.649Z,8.30
2023-05-19T00:44:28.637Z,9.40
2023-05-19T00:45:28.618Z,8.90
2023-05-19T00:46:28.635Z,9.30
2023-05-19T00:47:28.613Z,10.60
2023-05-19T00:48:28.586Z,10.20
2023-05-19T00:49:28.568Z,9.40
2023-05-19T00:50:28.560Z,9.10
2023-05-19T00:51:28.546Z,10.10
2023-05-19T00:52:28.536Z,10.20
2023-05-19T00:53:28.539Z,9.20
2023-05-19T00:54:28.509Z,11.30
2023-05-19T00:55:28.506Z,9.30
2023-05-19T00:56:28.487Z,8.40
2023-05-19T00:57:28.492Z,13.20
2023-05-19T00:58:28.488Z,10.20
2023-05-19T00:59:28.470Z,10.80
2023-05-19T01:00:28.475Z,9.90
2023-05-19T01:01:28.543Z,9.00
2023-05-19T01:02:28.498Z,12.30
2023-05-19T01:03:28.509Z,10.40
2023-05-19T01:04:28.398Z,10.60
2023-05-19T01:05:28.397Z,10.50
2023-05-19T01:06:28.374Z,10.20
2023-05-19T01:07:28.381Z,11.40
2023-05-19T01:08:28.364Z,9.90
2023-05-19T01:09:28.349Z,10.20
2023-05-19T01:10:28.343Z,10.80
2023-05-19T01:11:28.338Z,8.80
2023-05-19T01:12:28.327Z,10.50
2023-05-19T01:13:28.307Z,9.40
2023-05-19T01:14:28.296Z,10.30
2023-05-19T01:15:28.279Z,11.00
2023-05-19T01:16:28.311Z,9.90
2023-05-19T01:17:28.328Z,9.40
2023-05-19T01:18:28.250Z,11.50
2023-05-19T01:19:28.243Z,12.20
2023-05-19T01:20:28.226Z,11.40
2023-05-19T01:21:28.221Z,10.90
2023-05-19T01:22:28.209Z,10.10
2023-05-19T01:23:28.188Z,10.50
2023-05-19T01:24:28.189Z,9.10
2023-05-19T01:25:28.182Z,9.20
2023-05-19T01:26:28.173Z,8.70
2023-05-19T01:27:28.146Z,10.80
2023-05-19T01:28:28.144Z,10.10
2023-05-19T01:29:28.126Z,10.30
2023-05-19T01:30:28.126Z,9.00
2023-05-19T01:31:28.126Z,12.30
2023-05-19T01:32:28.115Z,11.70
2023-05-19T01:33:28.079Z,9.20
2023-05-19T01:34:28.088Z,11.60
2023-05-19T01:35:28.066Z,10.40
2023-05-19T01:36:28.050Z,10.10
2023-05-19T01:37:28.040Z,11.20
2023-05-19T01:38:28.030Z,10.60
2023-05-19T01:39:28.023Z,10.70
2023-05-19T01:40:28.016Z,12.70
2023-05-19T01:41:27.992Z,10.50
2023-05-19T01:42:27.991Z,10.10
2023-05-19T01:43:27.967Z,10.70
2023-05-19T01:44:27.976Z,8.80
2023-05-19T01:45:27.951Z,10.10
2023-05-19T01:46:28.092Z,9.60
2023-05-19T01:47:27.962Z,9.80
2023-05-19T01:48:27.925Z,12.00
2023-05-19T01:49:27.916Z,8.30
2023-05-19T01:50:27.901Z,11.00
2023-05-19T01:51:27.884Z,9.20
2023-05-19T01:52:27.880Z,10.70
2023-05-19T01:53:27.882Z,11.30
2023-05-19T01:54:27.866Z,9.80
2023-05-19T01:55:27.848Z,12.00
2023-05-19T01:56:27.827Z,8.80
2023-05-19T01:57:27.817Z,9.00
2023-05-19T01:58:27.825Z,11.90
2023-05-19T01:59:27.797Z,7.90
2023-05-19T02:00:27.796Z,10.50
2023-05-19T02:01:27.829Z,10.60
2023-05-19T02:02:27.802Z,10.10
2023-05-19T02:03:27.781Z,8.40
2023-05-19T02:04:27.782Z,9.40
2023-05-19T02:05:27.732Z,9.70
2023-05-19T02:06:27.731Z,11.50
2023-05-19T02:07:27.724Z,8.70
2023-05-19T02:08:27.713Z,9.40
2023-05-19T02:09:27.681Z,11.90
2023-05-19T02:10:27.693Z,11.70
2023-05-19T02:11:27.677Z,11.80
2023-05-19T02:12:27.663Z,10.40
2023-05-19T02:13:27.640Z,11.60
2023-05-19T02:14:27.633Z,10.40
2023-05-19T02:15:27.613Z,10.30
2023-05-19T02:16:27.730Z,13.20
2023-05-19T02:17:27.616Z,10.20
2023-05-19T02:18:27.589Z,13.30
2023-05-19T02:19:27.718Z,11.60
2023-05-19T02:20:27.566Z,11.20
2023-05-19T02:21:27.563Z,11.80
2023-05-19T02:22:27.549Z,14.30
2023-05-19T02:23:27.524Z,13.80
2023-05-19T02:24:27.527Z,10.20
2023-05-19T02:25:27.509Z,13.00
2023-05-19T02:26:27.502Z,10.70
2023-05-19T02:27:27.492Z,13.60
2023-05-19T02:28:27.485Z,10.70
2023-05-19T02:29:27.465Z,10.70
2023-05-19T02:30:27.451Z,10.10
2023-05-19T02:31:27.467Z,11.80
2023-05-19T02:32:27.465Z,10.90
2023-05-19T02:33:27.432Z,11.20
2023-05-19T02:34:27.414Z,11.30
2023-05-19T02:35:27.411Z,13.60
2023-05-19T02:36:27.406Z,13.30
2023-05-19T02:37:27.369Z,11.30
2023-05-19T02:38:27.381Z,11.20
2023-05-19T02:39:27.362Z,12.10
2023-05-19T02:40:27.373Z,11.50
2023-05-19T02:41:27.350Z,11.60
2023-05-19T02:42:27.324Z,10.80
2023-05-19T02:43:27.317Z,12.00
2023-05-19T02:44:27.299Z,13.00
2023-05-19T02:45:27.300Z,12.10
2023-05-19T02:46:27.323Z,11.40
2023-05-19T02:47:27.283Z,12.00
2023-05-19T02:48:27.251Z,11.30
2023-05-19T02:49:27.277Z,12.20
2023-05-19T02:50:27.247Z,13.00
2023-05-19T02:51:27.212Z,14.20
2023-05-19T02:52:27.213Z,13.20
2023-05-19T02:53:27.195Z,15.30
2023-05-19T02:54:27.228Z,14.00
2023-05-19T02:55:27.173Z,13.50
2023-05-19T02:56:27.166Z,10.90
2023-05-19T02:57:27.161Z,11.70
2023-05-19T02:58:27.140Z,10.70
2023-05-19T02:59:27.130Z,12.50
2023-05-19T03:00:27.132Z,11.60
2023-05-19T03:01:27.161Z,11.80
2023-05-19T03:02:27.195Z,13.90
2023-05-19T03:03:27.166Z,13.00
2023-05-19T03:04:27.083Z,11.10
2023-05-19T03:05:27.060Z,13.50
2023-05-19T03:06:27.048Z,12.10
2023-05-19T03:07:27.034Z,13.00
2023-05-19T03:08:27.041Z,12.60
2023-05-19T03:09:27.034Z,10.20
2023-05-19T03:10:27.013Z,11.30
2023-05-19T03:11:26.993Z,12.90
2023-05-19T03:12:26.984Z,11.30
2023-05-19T03:13:27.009Z,13.70
2023-05-19T03:14:26.961Z,11.50
2023-05-19T03:15:26.954Z,11.40
2023-05-19T03:16:26.968Z,14.40
2023-05-19T03:17:26.982Z,12.70
2023-05-19T03:18:26.986Z,12.80
2023-05-19T03:19:26.956Z,11.40
2023-05-19T03:20:26.900Z,11.90
2023-05-19T03:21:26.881Z,11.50
2023-05-19T03:22:26.887Z,13.80
2023-05-19T03:23:26.863Z,12.00
2023-05-19T03:24:26.856Z,11.60
2023-05-19T03:25:26.843Z,10.90
2023-05-19T03:26:26.841Z,10.90
2023-05-19T03:27:26.828Z,10.70
2023-05-19T03:28:26.809Z,14.70
2023-05-19T03:29:26.822Z,12.90
2023-05-19T03:30:26.786Z,11.40
2023-05-19T03:31:26.872Z,11.40
2023-05-19T03:32:26.856Z,11.60
2023-05-19T03:33:26.918Z,12.80
2023-05-19T03:34:26.758Z,13.00
2023-05-19T03:35:26.751Z,15.40
2023-05-19T03:36:26.749Z,11.40
2023-05-19T03:37:26.722Z,14.90
2023-05-19T03:38:26.707Z,12.80
2023-05-19T03:39:26.690Z,12.00
2023-05-19T03:40:26.681Z,15.30
2023-05-19T03:41:26.685Z,12.60
2023-05-19T03:42:26.661Z,12.40
2023-05-19T03:43:26.675Z,11.30
2023-05-19T03:44:26.674Z,15.30
2023-05-19T03:45:26.621Z,13.80
2023-05-19T03:46:26.847Z,15.50
2023-05-19T03:47:26.637Z,11.50
2023-05-19T03:48:26.598Z,11.30
2023-05-19T03:49:26.594Z,12.80
2023-05-19T03:50:26.587Z,11.20
2023-05-19T03:51:26.570Z,14.90
2023-05-19T03:52:26.552Z,14.60
2023-05-19T03:53:26.554Z,12.80
2023-05-19T03:54:26.525Z,12.90
2023-05-19T03:55:26.522Z,11.60
2023-05-19T03:56:26.536Z,12.80
2023-05-19T03:57:26.490Z,12.40
2023-05-19T03:58:26.483Z,14.20
2023-05-19T03:59:26.479Z,12.10
2023-05-19T04:00:26.491Z,14.90
2023-05-19T04:01:26.456Z,13.40
2023-05-19T04:02:26.588Z,12.50
2023-05-19T04:03:26.530Z,12.40
2023-05-19T04:04:26.452Z,14.00
2023-05-19T04:05:26.403Z,11.20
2023-05-19T04:06:26.399Z,14.60
2023-05-19T04:07:26.380Z,12.40
2023-05-19T04:08:26.402Z,12.80
2023-05-19T04:09:26.369Z,12.40
2023-05-19T04:10:26.349Z,13.00
2023-05-19T04:11:26.343Z,13.30
2023-05-19T04:12:26.366Z,11.20
2023-05-19T04:13:26.330Z,14.40
2023-05-19T04:14:26.312Z,13.00
2023-05-19T04:15:26.297Z,12.70
2023-05-19T04:16:26.474Z,15.40
2023-05-19T04:17:26.329Z,10.40
2023-05-19T04:18:28.809Z,11.80
2023-05-19T04:19:26.275Z,12.30
2023-05-19T04:20:26.246Z,12.90
2023-05-19T04:21:26.227Z,12.50
2023-05-19T04:22:26.215Z,15.00
2023-05-19T04:23:26.216Z,13.40
2023-05-19T04:24:26.202Z,13.00
2023-05-19T04:25:26.184Z,11.50
2023-05-19T04:26:26.174Z,11.70
2023-05-19T04:27:26.172Z,12.10
2023-05-19T04:28:26.175Z,13.10
2023-05-19T04:29:26.138Z,11.70
2023-05-19T04:30:26.144Z,14.70
2023-05-19T04:31:26.193Z,13.80
2023-05-19T04:32:26.212Z,12.80
2023-05-19T04:33:26.099Z,12.30
2023-05-19T04:34:26.114Z,11.70
2023-05-19T04:35:26.066Z,11.80
2023-05-19T04:36:26.065Z,13.70
2023-05-19T04:37:26.071Z,11.80
2023-05-19T04:38:26.048Z,11.20
2023-05-19T04:39:26.035Z,11.70
2023-05-19T04:40:26.044Z,11.70
2023-05-19T04:41:26.020Z,11.80
2023-05-19T04:42:26.011Z,12.50
2023-05-19T04:43:25.982Z,13.60
2023-05-19T04:44:25.976Z,11.40
2023-05-19T04:45:25.961Z,9.30
2023-05-19T04:46:25.993Z,10.80
2023-05-19T04:47:25.985Z,15.30
2023-05-19T04:48:25.929Z,11.80
2023-05-19T04:49:25.921Z,12.40
2023-05-19T04:50:25.916Z,10.80
2023-05-19T04:51:25.928Z,12.30
2023-05-19T04:52:25.895Z,11.00
2023-05-19T04:53:25.873Z,11.20
2023-05-19T04:54:25.873Z,14.10
2023-05-19T04:55:25.863Z,10.30
2023-05-19T04:56:25.856Z,11.40
2023-05-19T04:57:25.833Z,11.70
2023-05-19T04:58:25.832Z,11.20
2023-05-19T04:59:25.808Z,12.80
2023-05-19T05:00:25.817Z,12.00
2023-05-19T05:01:25.834Z,10.40
2023-05-19T05:02:25.857Z,13.20
2023-05-19T05:03:25.830Z,11.30
2023-05-19T05:04:25.777Z,11.10
2023-05-19T05:05:25.757Z,13.70
2023-05-19T05:06:25.735Z,13.70
2023-05-19T05:07:25.711Z,10.90
2023-05-19T05:08:25.701Z,11.70
2023-05-19T05:09:25.704Z,13.70
2023-05-19T05:10:25.695Z,11.60
2023-05-19T05:11:25.673Z,10.90
2023-05-19T05:12:25.673Z,11.40
2023-05-19T05:13:25.662Z,12.50
2023-05-19T05:14:25.668Z,12.00
2023-05-19T05:15:25.624Z,11.90
2023-05-19T05:16:25.659Z,8.90
2023-05-19T05:17:25.721Z,11.70
2023-05-19T05:18:25.593Z,10.00
2023-05-19T05:19:25.707Z,9.70
2023-05-19T05:20:25.576Z,10.90
2023-05-19T05:21:25.553Z,10.90
2023-05-19T05:22:25.553Z,9.40
2023-05-19T05:23:25.548Z,8.60
2023-05-19T05:24:25.537Z,7.70
2023-05-19T05:25:25.515Z,11.10
2023-05-19T05:26:25.505Z,10.30
2023-05-19T05:27:25.499Z,9.40
2023-05-19T05:28:25.496Z,12.10
2023-05-19T05:29:25.467Z,9.10
2023-05-19T05:30:25.490Z,11.90
2023-05-19T05:31:25.474Z,13.00
2023-05-19T05:32:25.506Z,9.20
2023-05-19T05:33:25.539Z,10.40
2023-05-19T05:34:25.432Z,10.60
2023-05-19T05:35:25.512Z,9.70
2023-05-19T05:36:25.412Z,9.40
2023-05-19T05:37:25.384Z,10.90
2023-05-19T05:38:25.399Z,9.10
2023-05-19T05:39:25.358Z,12.20
2023-05-19T05:40:25.367Z,10.00
2023-05-19T05:41:25.336Z,10.40
2023-05-19T05:43:25.334Z,9.80
2023-05-19T05:44:25.318Z,10.80
2023-05-19T05:45:25.291Z,8.30
2023-05-19T05:46:25.444Z,9.50
2023-05-19T05:47:25.324Z,11.20
2023-05-19T05:48:25.266Z,10.60
2023-05-19T05:49:25.250Z,9.20
2023-05-19T05:50:25.240Z,9.30
2023-05-19T05:51:25.225Z,8.60
2023-05-19T05:52:25.231Z,10.30
2023-05-19T05:53:25.201Z,8.90
2023-05-19T05:54:25.199Z,9.70
2023-05-19T05:55:25.189Z,8.70
2023-05-19T05:56:25.194Z,8.60
2023-05-19T05:57:25.172Z,8.10
2023-05-19T05:58:25.154Z,9.30
2023-05-19T05:59:25.143Z,11.40
2023-05-19T06:00:25.134Z,8.20
2023-05-19T06:01:25.135Z,8.50
2023-05-19T06:02:25.201Z,8.70
2023-05-19T06:03:25.248Z,9.20
2023-05-19T06:04:25.106Z,9.50
2023-05-19T06:05:25.116Z,9.00
2023-05-19T06:06:25.093Z,8.20
2023-05-19T06:07:25.054Z,9.70
2023-05-19T06:08:25.048Z,7.40
2023-05-19T06:09:25.052Z,9.10
2023-05-19T06:10:25.045Z,7.60
2023-05-19T06:11:25.021Z,7.60
2023-05-19T06:12:25.007Z,10.80
2023-05-19T06:13:24.992Z,7.10
2023-05-19T06:14:24.982Z,6.50
2023-05-19T06:15:24.989Z,9.40
2023-05-19T06:16:24.995Z,8.40
2023-05-19T06:17:24.971Z,10.50
2023-05-19T06:18:24.952Z,7.40
2023-05-19T06:19:25.035Z,8.70
2023-05-19T06:20:24.923Z,8.10
2023-05-19T06:21:24.903Z,9.10
2023-05-19T06:22:24.893Z,8.80
2023-05-19T06:23:24.877Z,8.10
2023-05-19T06:24:24.870Z,8.00
2023-05-19T06:25:24.881Z,8.10
2023-05-19T06:26:24.851Z,6.60
2023-05-19T06:27:24.838Z,6.70
2023-05-19T06:28:24.846Z,7.90
2023-05-19T06:29:24.842Z,7.30
2023-05-19T06:30:24.813Z,8.50
2023-05-19T06:31:24.872Z,8.50
2023-05-19T06:32:24.854Z,7.20
2023-05-19T06:33:27.397Z,6.50
2023-05-19T06:34:24.775Z,5.90
2023-05-19T06:35:24.756Z,8.20
2023-05-19T06:36:24.741Z,6.60
2023-05-19T06:37:24.722Z,6.30
2023-05-19T06:38:24.740Z,7.90
2023-05-19T06:39:24.734Z,7.50
2023-05-19T06:40:24.696Z,6.40
2023-05-19T06:41:24.681Z,8.20
2023-05-19T06:42:24.675Z,7.80
2023-05-19T06:43:24.663Z,5.70
2023-05-19T06:44:24.668Z,6.20
2023-05-19T06:45:24.637Z,5.50
2023-05-19T06:46:24.660Z,6.40
2023-05-19T06:47:24.634Z,5.50
2023-05-19T06:48:24.605Z,7.90
2023-05-19T06:49:24.617Z,7.80
2023-05-19T06:50:24.589Z,5.80
2023-05-19T06:51:24.577Z,5.50
2023-05-19T06:52:24.570Z,7.00
2023-05-19T06:53:24.547Z,8.80
2023-05-19T06:54:24.553Z,6.60
2023-05-19T06:55:24.537Z,7.60
2023-05-19T06:56:24.530Z,6.80
2023-05-19T06:57:24.506Z,6.50
2023-05-19T06:58:24.525Z,8.00
2023-05-19T06:59:24.557Z,5.30
2023-05-19T07:00:24.471Z,9.20
2023-05-19T07:01:24.479Z,9.40
2023-05-19T07:02:24.460Z,7.90
2023-05-19T07:03:24.555Z,7.40
2023-05-19T07:04:24.460Z,6.70
2023-05-19T07:05:24.429Z,7.10
2023-05-19T07:06:24.421Z,6.90
2023-05-19T07:07:24.389Z,7.10
2023-05-19T07:08:24.415Z,6.10
2023-05-19T07:09:24.387Z,6.30
2023-05-19T07:10:24.353Z,6.40
2023-05-19T07:11:24.355Z,5.30
2023-05-19T07:12:24.348Z,5.80
2023-05-19T07:13:25.920Z,6.90
2023-05-19T07:14:24.318Z,6.70
2023-05-19T07:15:24.305Z,7.90
2023-05-19T07:16:24.316Z,5.90
2023-05-19T07:17:24.956Z,5.90
2023-05-19T07:18:24.268Z,7.70
2023-05-19T07:19:24.383Z,6.50
2023-05-19T07:20:24.250Z,6.40
2023-05-19T07:21:24.244Z,8.70
2023-05-19T07:22:24.255Z,4.80
2023-05-19T07:23:24.219Z,6.20
2023-05-19T07:24:24.205Z,6.10
2023-05-19T07:25:24.196Z,6.30
2023-05-19T07:26:24.189Z,4.20
2023-05-19T07:27:24.202Z,6.60
2023-05-19T07:28:24.186Z,8.80
2023-05-19T07:29:24.151Z,6.60
2023-05-19T07:30:24.135Z,5.20
2023-05-19T07:31:24.170Z,5.00
2023-05-19T07:32:24.190Z,6.80
2023-05-19T07:33:24.107Z,7.00
2023-05-19T07:34:24.090Z,4.10
2023-05-19T07:35:24.084Z,4.20
2023-05-19T07:36:24.077Z,6.20
2023-05-19T07:37:24.062Z,5.20
2023-05-19T07:38:24.046Z,5.90
2023-05-19T07:39:24.340Z,4.20
2023-05-19T07:40:24.025Z,7.50
2023-05-19T07:41:24.032Z,6.20
2023-05-19T07:42:24.002Z,3.30
2023-05-19T07:43:24.006Z,7.30
2023-05-19T07:44:23.980Z,6.80
2023-05-19T07:45:23.987Z,6.20
2023-05-19T07:46:24.024Z,6.60
2023-05-19T07:47:23.952Z,5.60
2023-05-19T07:48:23.938Z,4.80
2023-05-19T07:49:23.930Z,6.60
2023-05-19T07:50:23.927Z,6.30
2023-05-19T07:51:23.905Z,4.40
2023-05-19T07:52:23.891Z,5.80
2023-05-19T07:53:23.895Z,5.20
2023-05-19T07:54:23.888Z,5.00
2023-05-19T07:55:23.882Z,7.40
2023-05-19T07:56:23.847Z,6.30
2023-05-19T07:57:23.839Z,7.00
2023-05-19T07:58:23.825Z,4.90
2023-05-19T07:59:23.817Z,4.60
2023-05-19T08:00:23.804Z,6.80
2023-05-19T08:01:23.802Z,4.30
2023-05-19T08:02:23.842Z,6.40
2023-05-19T08:03:24.046Z,6.50
2023-05-19T08:04:23.820Z,5.30
2023-05-19T08:05:23.752Z,4.10
2023-05-19T08:06:23.734Z,5.10
2023-05-19T08:07:23.728Z,6.20
2023-05-19T08:08:23.716Z,4.80
2023-05-19T08:09:23.722Z,4.70
2023-05-19T08:10:23.795Z,6.20
2023-05-19T08:11:23.682Z,6.00
2023-05-19T08:12:23.677Z,6.60
2023-05-19T08:13:23.661Z,7.80
2023-05-19T08:14:23.668Z,8.20
2023-05-19T08:15:23.646Z,7.30
2023-05-19T08:16:23.700Z,3.30
2023-05-19T08:17:23.634Z,5.10
2023-05-19T08:18:23.621Z,7.30
2023-05-19T08:19:23.785Z,4.40
2023-05-19T08:20:23.610Z,6.60
2023-05-19T08:21:23.594Z,5.60
2023-05-19T08:22:23.571Z,5.30
2023-05-19T08:23:23.570Z,7.80
2023-05-19T08:24:23.547Z,4.80
2023-05-19T08:25:23.566Z,5.40
2023-05-19T08:26:23.513Z,5.90
2023-05-19T08:27:23.521Z,4.10
2023-05-19T08:28:23.513Z,4.50
2023-05-19T08:29:23.488Z,4.80
2023-05-19T08:30:23.502Z,6.80
2023-05-19T08:31:23.503Z,5.20
2023-05-19T08:32:23.489Z,5.00
2023-05-19T08:33:23.469Z,6.00
2023-05-19T08:34:23.460Z,5.10
2023-05-19T08:35:23.428Z,4.50
2023-05-19T08:36:23.411Z,4.30
2023-05-19T08:37:23.392Z,4.90
2023-05-19T08:38:23.404Z,3.70
2023-05-19T08:39:23.373Z,3.70
2023-05-19T08:40:23.404Z,3.80
2023-05-19T08:41:23.372Z,4.00
2023-05-19T08:42:23.362Z,5.70
2023-05-19T08:43:23.345Z,6.20
2023-05-19T08:44:23.339Z,6.70
2023-05-19T08:45:23.328Z,4.30
2023-05-19T08:46:23.346Z,6.00
2023-05-19T08:47:23.300Z,4.00
2023-05-19T08:48:23.283Z,5.20
2023-05-19T08:49:25.407Z,4.60
2023-05-19T08:50:23.296Z,4.10
2023-05-19T08:51:23.244Z,4.80
2023-05-19T08:52:23.266Z,6.60
2023-05-19T08:53:33.236Z,6.20
2023-05-19T09:01:39.852Z,4.20
2023-05-19T09:01:45.161Z,5.00
2023-05-19T09:02:55.074Z,6.60
2023-05-19T09:03:45.187Z,5.20
2023-05-19T09:04:45.164Z,4.00
2023-05-19T09:05:45.159Z,4.80
2023-05-19T09:06:45.231Z,7.90
2023-05-19T09:07:45.091Z,5.40
2023-05-19T09:08:45.104Z,3.80
2023-05-19T09:09:45.078Z,5.60
2023-05-19T09:10:45.085Z,4.90
2023-05-19T09:11:45.047Z,3.40
2023-05-19T09:12:45.045Z,3.90
2023-05-19T09:13:45.041Z,2.90
2023-05-19T09:14:45.015Z,3.80
2023-05-19T09:15:45.017Z,4.90
2023-05-19T09:16:45.076Z,4.60
2023-05-19T09:17:45.014Z,6.20
2023-05-19T09:18:45.016Z,3.70
2023-05-19T09:19:44.973Z,6.40
2023-05-19T09:20:44.963Z,5.10
2023-05-19T09:21:44.941Z,3.50
2023-05-19T09:22:44.928Z,4.20
2023-05-19T09:23:44.916Z,4.70
2023-05-19T09:24:44.953Z,6.70
2023-05-19T09:25:44.904Z,5.60
2023-05-19T09:26:44.889Z,3.50
2023-05-19T09:27:44.868Z,4.50
2023-05-19T09:28:44.866Z,4.50
2023-05-19T09:29:44.857Z,3.90
2023-05-19T09:30:44.843Z,4.80
2023-05-19T09:31:44.854Z,6.00
2023-05-19T09:32:44.855Z,3.70
2023-05-19T09:33:46.016Z,6.70
2023-05-19T09:34:44.809Z,4.30
2023-05-19T09:35:44.784Z,6.50
2023-05-19T09:36:44.774Z,4.90
2023-05-19T09:37:44.780Z,3.50
2023-05-19T09:38:44.788Z,3.00
2023-05-19T09:39:44.744Z,5.20
2023-05-19T09:40:44.728Z,5.20
2023-05-19T09:41:44.717Z,3.70
2023-05-19T09:42:44.721Z,4.10
2023-05-19T09:43:44.707Z,4.70
2023-05-19T09:44:44.686Z,3.60
2023-05-19T09:45:44.717Z,3.40
2023-05-19T09:46:44.767Z,4.00
2023-05-19T09:47:44.725Z,5.90
2023-05-19T09:48:44.671Z,4.70
2023-05-19T09:49:44.629Z,3.40
2023-05-19T09:50:44.619Z,5.90
2023-05-19T09:51:44.603Z,5.00
2023-05-19T09:52:44.633Z,3.30
2023-05-19T09:53:44.591Z,5.20
2023-05-19T09:54:44.578Z,4.50
2023-05-19T09:55:44.567Z,5.40
2023-05-19T09:56:44.557Z,3.70
2023-05-19T09:57:44.554Z,4.40
2023-05-19T09:58:44.531Z,4.80
2023-05-19T09:59:44.520Z,4.50
2023-05-19T10:00:44.535Z,4.70
2023-05-19T10:01:44.556Z,5.20
2023-05-19T10:02:44.525Z,5.00
2023-05-19T10:03:44.471Z,4.10
2023-05-19T10:04:44.491Z,4.30
2023-05-19T10:05:44.456Z,3.90
2023-05-19T10:06:44.457Z,3.50
2023-05-19T10:07:44.442Z,4.50
2023-05-19T10:08:44.428Z,2.90
2023-05-19T10:09:44.410Z,3.80
2023-05-19T10:10:44.419Z,4.10
2023-05-19T10:11:44.407Z,4.90
2023-05-19T10:12:44.373Z,4.70
2023-05-19T10:13:44.372Z,4.90
2023-05-19T10:14:44.353Z,4.80
2023-05-19T10:15:57.193Z,5.80
2023-05-19T10:16:44.378Z,5.40
2023-05-19T10:17:44.334Z,7.00
2023-05-19T10:18:44.311Z,5.50
2023-05-19T10:19:44.319Z,4.30
2023-05-19T10:20:44.296Z,5.50
2023-05-19T10:21:44.286Z,5.90
2023-05-19T10:22:44.266Z,4.10
2023-05-19T10:23:44.260Z,4.50
2023-05-19T10:24:44.246Z,3.20
2023-05-19T10:25:44.264Z,5.10
2023-05-19T10:26:44.219Z,3.20
2023-05-19T10:27:44.239Z,4.10
2023-05-19T10:28:44.219Z,4.70
2023-05-19T10:29:44.209Z,5.60
2023-05-19T10:30:44.190Z,3.10
2023-05-19T10:31:44.187Z,3.50
2023-05-19T10:32:44.207Z,3.60
2023-05-19T10:33:44.148Z,4.60
2023-05-19T10:34:44.161Z,6.40
2023-05-19T10:35:45.380Z,6.70
2023-05-19T10:36:44.117Z,4.60
2023-05-19T10:37:44.103Z,6.40
2023-05-19T10:38:44.108Z,3.60
2023-05-19T10:39:44.096Z,3.80
2023-05-19T10:40:44.070Z,9.00
2023-05-19T10:41:45.074Z,8.20
2023-05-19T10:42:44.045Z,4.20
2023-05-19T10:43:44.038Z,6.60
2023-05-19T10:44:44.037Z,4.90
2023-05-19T10:45:44.020Z,4.30
2023-05-19T10:46:44.041Z,7.40
2023-05-19T10:47:44.016Z,4.60
2023-05-19T10:48:43.994Z,3.00
2023-05-19T10:49:43.989Z,4.30
2023-05-19T10:50:43.959Z,3.80
2023-05-19T10:51:43.950Z,5.30
2023-05-19T10:52:43.933Z,3.80
2023-05-19T10:53:43.939Z,4.80
2023-05-19T10:54:43.924Z,6.00
2023-05-19T10:55:43.910Z,5.50
2023-05-19T10:56:43.911Z,5.10
2023-05-19T10:57:43.888Z,5.00
2023-05-19T10:58:43.926Z,5.60
2023-05-19T10:59:43.869Z,6.30
2023-05-19T11:00:43.851Z,5.10
2023-05-19T11:01:43.891Z,4.10
2023-05-19T11:02:43.995Z,4.90
2023-05-19T11:03:43.863Z,6.40
2023-05-19T11:04:43.805Z,4.90
2023-05-19T11:05:43.819Z,5.40
2023-05-19T11:06:43.790Z,7.70
2023-05-19T11:07:43.824Z,5.70
2023-05-19T11:08:43.762Z,9.30
2023-05-19T11:09:43.756Z,5.70
2023-05-19T11:10:43.738Z,5.40
2023-05-19T11:11:43.735Z,2.50
2023-05-19T11:12:43.742Z,4.00
2023-05-19T11:13:43.716Z,3.30
2023-05-19T11:14:43.713Z,4.60
2023-05-19T11:15:43.688Z,6.40
2023-05-19T11:16:43.726Z,4.90
2023-05-19T11:17:43.698Z,4.60
2023-05-19T11:18:43.716Z,4.90
2023-05-19T11:19:43.645Z,5.00
2023-05-19T11:20:43.655Z,3.20
2023-05-19T11:21:43.640Z,5.30
2023-05-19T11:22:43.616Z,5.00
2023-05-19T11:23:43.676Z,3.60
2023-05-19T11:24:43.608Z,4.60
2023-05-19T11:25:43.634Z,5.50
2023-05-19T11:26:43.576Z,5.20
2023-05-19T11:27:43.552Z,5.00
2023-05-19T11:28:43.540Z,4.20
2023-05-19T11:29:43.537Z,4.70
2023-05-19T11:30:43.538Z,5.10
2023-05-19T11:31:43.545Z,4.60
2023-05-19T11:32:43.538Z,5.40
2023-05-19T11:33:43.493Z,5.20
2023-05-19T11:34:43.477Z,4.70
2023-05-19T11:35:43.481Z,4.10
2023-05-19T11:36:43.469Z,4.20
2023-05-19T11:37:43.449Z,3.70
2023-05-19T11:38:43.436Z,4.40
2023-05-19T11:39:43.426Z,6.00
2023-05-19T11:40:43.417Z,6.10
2023-05-19T11:41:43.410Z,5.40
2023-05-19T11:42:43.393Z,3.40
2023-05-19T11:43:43.380Z,4.90
2023-05-19T11:44:43.365Z,5.50
2023-05-19T11:45:43.376Z,7.30
2023-05-19T11:46:43.411Z,5.70
2023-05-19T11:48:00.260Z,4.80
2023-05-19T11:48:43.417Z,5.10
2023-05-19T11:49:43.355Z,6.40
2023-05-19T11:50:43.312Z,5.10
2023-05-19T11:51:43.288Z,5.50
2023-05-19T11:52:43.279Z,4.40
2023-05-19T11:53:43.276Z,5.20
2023-05-19T11:54:43.265Z,4.40
2023-05-19T11:55:43.251Z,3.90
2023-05-19T11:56:43.234Z,5.30
2023-05-19T11:57:47.049Z,3.50
2023-05-19T11:58:43.217Z,4.90
2023-05-19T11:59:43.219Z,3.70
2023-05-19T12:00:43.190Z,5.40
2023-05-19T12:01:43.182Z,6.10
2023-05-19T12:02:43.253Z,3.40
2023-05-19T12:03:43.248Z,4.70
2023-05-19T12:04:43.272Z,4.60
2023-05-19T12:05:43.893Z,5.40
2023-05-19T12:06:43.144Z,4.40
2023-05-19T12:07:43.129Z,5.60
2023-05-19T12:08:43.145Z,4.40
2023-05-19T12:09:43.105Z,5.40
2023-05-19T12:10:43.074Z,4.60
2023-05-19T12:11:43.076Z,5.70
2023-05-19T12:12:43.055Z,5.20
2023-05-19T12:13:43.063Z,5.30
2023-05-19T12:14:43.034Z,3.90
2023-05-19T12:15:43.037Z,4.60
2023-05-19T12:16:43.068Z,7.30
2023-05-19T12:17:43.085Z,3.60
2023-05-19T12:18:43.054Z,4.10
2023-05-19T12:19:42.989Z,5.20
2023-05-19T12:20:42.974Z,5.20
2023-05-19T12:21:42.969Z,5.20
2023-05-19T12:22:42.976Z,5.70
2023-05-19T12:23:42.942Z,4.70
2023-05-19T12:24:42.924Z,4.40
2023-05-19T12:25:42.929Z,4.40
2023-05-19T12:26:42.904Z,5.00
2023-05-19T12:27:42.922Z,3.00
2023-05-19T12:28:42.881Z,3.80
2023-05-19T12:29:42.881Z,8.40
2023-05-19T12:30:42.867Z,4.40
2023-05-19T12:31:42.884Z,5.60
2023-05-19T12:32:42.880Z,4.80
2023-05-19T12:33:42.829Z,4.90
2023-05-19T12:34:42.821Z,4.10
2023-05-19T12:35:42.813Z,3.70
2023-05-19T12:36:42.809Z,3.70
2023-05-19T12:37:42.792Z,4.60
2023-05-19T12:38:42.773Z,4.90
2023-05-19T12:39:42.765Z,4.90
2023-05-19T12:40:42.756Z,4.20
2023-05-19T12:41:42.753Z,4.60
2023-05-19T12:42:42.732Z,3.60
2023-05-19T12:43:42.724Z,2.90
2023-05-19T12:44:42.721Z,2.70
2023-05-19T12:45:42.836Z,3.90
2023-05-19T12:46:42.700Z,5.00
2023-05-19T12:47:42.722Z,4.10
2023-05-19T12:48:42.660Z,3.30
2023-05-19T12:49:42.657Z,4.80
2023-05-19T12:50:42.679Z,6.00
2023-05-19T12:51:42.704Z,4.20
2023-05-19T12:52:42.619Z,3.90
2023-05-19T12:53:42.612Z,4.30
2023-05-19T12:54:42.735Z,5.90
2023-05-19T12:55:42.601Z,4.50
2023-05-19T12:56:42.595Z,5.40
2023-05-19T12:57:42.585Z,3.70
2023-05-19T12:58:42.570Z,2.20
2023-05-19T12:59:42.540Z,4.90
2023-05-19T13:00:42.757Z,3.90
2023-05-19T13:01:42.538Z,3.70
2023-05-19T13:02:42.597Z,5.30
2023-05-19T13:03:42.561Z,4.30
2023-05-19T13:04:42.512Z,7.00
2023-05-19T13:05:42.486Z,3.40
2023-05-19T13:06:42.488Z,5.30
2023-05-19T13:07:42.460Z,3.50
2023-05-19T13:08:42.460Z,3.70
2023-05-19T13:09:42.446Z,4.00
2023-05-19T13:10:42.454Z,3.50
2023-05-19T13:11:42.420Z,5.00
2023-05-19T13:12:42.399Z,5.80
2023-05-19T13:13:42.391Z,4.20
2023-05-19T13:14:42.391Z,6.60
2023-05-19T13:15:42.370Z,5.10
2023-05-19T13:16:42.377Z,4.60